createdAt,value
2017-07-11T00:00:32.086Z,99.44
2017-07-11T00:02:59.546Z,99.22
2017-07-11T00:05:27.011Z,99.46
2017-07-11T00:07:54.498Z,99.48
2017-07-11T00:10:21.982Z,99.57
2017-07-11T00:12:49.466Z,99.11
2017-07-11T00:15:16.925Z,99.59
2017-07-11T00:17:44.411Z,99.49
2017-07-11T00:20:11.876Z,99.14
2017-07-11T00:22:39.370Z,99.44
2017-07-11T00:25:06.846Z,99.81
2017-07-11T00:27:34.326Z,99.01
2017-07-11T00:30:01.805Z,99.31
2017-07-11T00:32:29.298Z,99.43
2017-07-11T00:34:56.773Z,99.48
2017-07-11T00:37:24.599Z,99.18
2017-07-11T00:39:52.077Z,99.33
2017-07-11T00:42:19.538Z,99.83
2017-07-11T00:44:47.020Z,98.77
2017-07-11T00:47:14.488Z,99.61
2017-07-11T00:49:41.978Z,99.36
2017-07-11T00:52:09.658Z,99.79
2017-07-11T00:54:37.131Z,100.00
2017-07-11T00:57:04.608Z,100.00
2017-07-11T00:59:32.095Z,99.56
2017-07-11T01:01:59.582Z,99.55
2017-07-11T01:04:27.043Z,99.57
2017-07-11T01:06:54.533Z,99.87
2017-07-11T01:09:22.029Z,99.43
2017-07-11T01:11:49.518Z,99.45
2017-07-11T01:14:17.005Z,99.78
2017-07-11T01:16:44.493Z,99.85
2017-07-11T01:19:11.958Z,99.62
2017-07-11T01:21:39.443Z,100.00
2017-07-11T01:24:06.942Z,99.85
2017-07-11T01:26:34.394Z,99.64
2017-07-11T01:29:01.895Z,99.72
2017-07-11T01:31:29.357Z,99.52
2017-07-11T01:33:56.844Z,99.88
2017-07-11T01:36:36.895Z,99.81
2017-07-11T01:39:04.410Z,99.81
2017-07-11T01:41:31.923Z,99.58
2017-07-11T01:43:59.380Z,99.66
2017-07-11T01:46:26.845Z,99.44
2017-07-11T01:48:54.327Z,99.71
2017-07-11T01:51:21.814Z,99.32
2017-07-11T01:53:49.290Z,99.31
2017-07-11T01:56:16.784Z,99.30
2017-07-11T01:58:44.247Z,99.49
2017-07-11T02:01:11.742Z,99.10
2017-07-11T02:03:39.198Z,99.20
2017-07-11T02:06:06.683Z,99.48
2017-07-11T02:08:34.148Z,98.57
2017-07-11T02:11:01.626Z,99.02
2017-07-11T02:13:29.368Z,98.96
2017-07-11T02:15:56.824Z,98.24
2017-07-11T02:18:24.286Z,97.81
2017-07-11T02:20:51.762Z,98.69
2017-07-11T02:23:19.223Z,98.46
2017-07-11T02:25:46.714Z,98.76
2017-07-11T02:28:14.174Z,98.28
2017-07-11T02:30:41.645Z,98.64
2017-07-11T02:33:09.093Z,98.50
2017-07-11T02:35:36.570Z,98.13
2017-07-11T02:44:47.263Z,97.71
2017-07-11T02:47:14.728Z,98.17
2017-07-11T02:49:42.197Z,98.62
2017-07-11T02:52:09.658Z,97.91
2017-07-11T02:54:37.154Z,97.78
2017-07-11T02:57:04.643Z,98.66
2017-07-11T02:59:32.090Z,96.70
2017-07-11T03:01:59.563Z,97.21
2017-07-11T03:04:27.025Z,98.14
2017-07-11T03:06:54.511Z,98.11
2017-07-11T03:09:21.977Z,97.82
2017-07-11T03:11:49.470Z,98.21
2017-07-11T03:14:16.947Z,97.89
2017-07-11T03:16:44.683Z,97.44
2017-07-11T03:19:12.170Z,97.61
2017-07-11T03:21:39.627Z,97.41
2017-07-11T03:24:07.098Z,97.13
2017-07-11T03:26:34.763Z,97.48
2017-07-11T03:29:02.227Z,97.13
2017-07-11T03:31:29.686Z,96.97
2017-07-11T03:33:57.175Z,97.30
2017-07-11T03:36:24.640Z,97.02
2017-07-11T03:38:52.117Z,96.50
2017-07-11T03:41:19.571Z,97.41
2017-07-11T03:43:47.055Z,97.18
2017-07-11T03:46:14.507Z,96.31
2017-07-11T03:48:41.980Z,96.73
2017-07-11T03:51:09.464Z,96.54
2017-07-11T03:53:36.919Z,96.57
2017-07-11T03:56:06.574Z,97.43
2017-07-11T03:58:34.154Z,97.29
2017-07-11T04:01:01.635Z,97.44
2017-07-11T04:03:29.469Z,97.71
2017-07-11T04:05:56.952Z,97.39
2017-07-11T04:08:24.430Z,97.14
2017-07-11T04:10:51.882Z,97.64
2017-07-11T04:13:19.375Z,96.50
2017-07-11T04:15:46.837Z,96.41
2017-07-11T04:18:14.298Z,96.92
2017-07-11T04:20:41.785Z,96.33
2017-07-11T04:23:09.260Z,97.09
2017-07-11T04:25:36.713Z,96.21
2017-07-11T04:28:04.199Z,96.95
2017-07-11T04:30:31.658Z,96.71
2017-07-11T04:32:59.355Z,96.83
2017-07-11T04:35:26.826Z,97.01
2017-07-11T04:37:54.330Z,96.83
2017-07-11T04:40:21.786Z,96.52
2017-07-11T04:42:49.242Z,97.70
2017-07-11T04:45:16.717Z,96.52
2017-07-11T04:47:45.194Z,96.48
2017-07-11T04:50:12.641Z,97.01
2017-07-11T04:52:40.098Z,96.76
2017-07-11T04:55:07.578Z,96.25
2017-07-11T04:57:35.378Z,95.11
2017-07-11T05:00:02.839Z,95.73
2017-07-11T05:02:30.300Z,96.14
2017-07-11T05:04:58.834Z,96.74
2017-07-11T05:07:26.338Z,96.16
2017-07-11T05:09:53.796Z,96.28
2017-07-11T05:12:21.255Z,95.42
2017-07-11T05:14:48.733Z,96.33
2017-07-11T05:17:16.252Z,95.92
2017-07-11T05:19:43.733Z,94.81
2017-07-11T05:22:11.594Z,94.90
2017-07-11T05:24:39.118Z,94.87
2017-07-11T05:27:06.566Z,94.00
2017-07-11T05:29:34.042Z,94.79
2017-07-11T05:32:01.517Z,94.80
2017-07-11T05:34:28.973Z,92.62
2017-07-11T05:36:56.426Z,95.09
2017-07-11T05:39:23.899Z,94.03
2017-07-11T05:41:51.351Z,94.43
2017-07-11T05:44:18.822Z,94.19
2017-07-11T05:46:46.314Z,91.63
2017-07-11T05:49:13.766Z,92.29
2017-07-11T05:51:41.213Z,91.15
2017-07-11T05:54:09.103Z,91.18
2017-07-11T05:56:36.555Z,92.33
2017-07-11T05:59:04.004Z,88.87
2017-07-11T06:01:31.654Z,90.78
2017-07-11T06:03:59.107Z,89.03
2017-07-11T06:06:26.558Z,90.63
2017-07-11T06:08:54.485Z,89.88
2017-07-11T06:11:21.942Z,88.48
2017-07-11T06:13:49.402Z,88.26
2017-07-11T06:16:17.194Z,88.50
2017-07-11T06:18:44.651Z,89.84
2017-07-11T06:21:12.121Z,88.69
2017-07-11T06:23:39.606Z,89.33
2017-07-11T06:26:07.063Z,90.59
2017-07-11T06:28:34.541Z,87.79
2017-07-11T06:31:02.018Z,88.13
2017-07-11T06:33:29.496Z,89.48
2017-07-11T06:35:56.958Z,90.09
2017-07-11T06:38:24.442Z,88.45
2017-07-11T06:40:51.922Z,87.44
2017-07-11T06:43:19.419Z,86.45
2017-07-11T06:45:46.906Z,84.82
2017-07-11T06:48:14.360Z,83.84
2017-07-11T06:50:41.836Z,82.91
2017-07-11T06:53:09.322Z,81.09
2017-07-11T06:55:36.806Z,80.12
2017-07-11T06:58:04.286Z,80.59
2017-07-11T07:00:31.759Z,78.31
2017-07-11T07:02:59.214Z,79.59
2017-07-11T07:05:26.711Z,79.66
2017-07-11T07:07:54.179Z,77.45
2017-07-11T07:10:21.741Z,77.36
2017-07-11T07:12:49.218Z,72.45
2017-07-11T07:15:16.694Z,70.28
2017-07-11T07:17:44.170Z,70.03
2017-07-11T07:20:11.747Z,68.65
2017-07-11T07:22:39.198Z,69.39
2017-07-11T07:25:06.642Z,68.45
2017-07-11T07:27:34.119Z,68.30
2017-07-11T07:30:01.573Z,68.83
2017-07-11T07:32:29.070Z,65.85
2017-07-11T07:34:56.520Z,66.99
2017-07-11T07:37:24.367Z,66.38
2017-07-11T07:39:51.858Z,63.02
2017-07-11T07:42:19.313Z,64.36
2017-07-11T07:44:46.798Z,64.91
2017-07-11T07:47:14.268Z,63.37
2017-07-11T07:49:41.765Z,63.51
2017-07-11T07:52:09.228Z,64.64
2017-07-11T07:54:36.702Z,61.82
2017-07-11T07:57:04.177Z,61.69
2017-07-11T07:59:31.644Z,62.47
2017-07-11T08:01:59.120Z,61.58
2017-07-11T08:04:26.583Z,58.98
2017-07-11T08:06:54.054Z,58.48
2017-07-11T08:09:21.627Z,59.16
2017-07-11T08:11:49.096Z,59.50
2017-07-11T08:14:16.583Z,59.93
2017-07-11T08:16:44.046Z,61.14
2017-07-11T08:19:11.628Z,59.63
2017-07-11T08:21:39.090Z,57.37
2017-07-11T08:24:06.543Z,59.33
2017-07-11T08:26:34.032Z,58.51
2017-07-11T08:29:01.523Z,59.28
2017-07-11T08:31:28.977Z,59.44
2017-07-11T08:33:56.430Z,59.81
2017-07-11T08:36:23.908Z,59.54
2017-07-11T08:38:52.000Z,60.78
2017-07-11T08:41:19.458Z,59.24
2017-07-11T08:43:46.928Z,60.15
2017-07-11T08:46:14.411Z,58.62
2017-07-11T08:48:41.859Z,57.78
2017-07-11T08:51:09.603Z,56.25
2017-07-11T08:53:37.063Z,56.02
2017-07-11T08:56:04.514Z,56.19
2017-07-11T08:58:31.985Z,55.63
2017-07-11T09:00:59.453Z,55.84
2017-07-11T09:03:26.930Z,56.25
2017-07-11T09:05:54.389Z,56.10
2017-07-11T09:08:21.883Z,55.11
2017-07-11T09:10:49.565Z,55.89
2017-07-11T09:13:17.067Z,56.56
2017-07-11T09:15:44.513Z,55.82
2017-07-11T09:18:11.990Z,53.52
2017-07-11T09:20:39.441Z,54.17
2017-07-11T09:23:06.939Z,53.90
2017-07-11T09:25:34.395Z,52.76
2017-07-11T09:28:01.866Z,54.31
2017-07-11T09:30:29.345Z,54.56
2017-07-11T09:32:56.805Z,55.06
2017-07-11T09:35:24.278Z,55.23
2017-07-11T09:37:52.360Z,57.42
2017-07-11T09:40:19.834Z,55.84
2017-07-11T09:42:47.287Z,54.61
2017-07-11T09:45:14.954Z,54.21
2017-07-11T09:47:42.406Z,55.19
2017-07-11T09:50:09.871Z,55.65
2017-07-11T09:52:37.494Z,55.51
2017-07-11T09:55:04.957Z,55.17
2017-07-11T09:57:32.412Z,54.31
2017-07-11T09:59:59.909Z,53.91
2017-07-11T10:02:27.362Z,53.56
2017-07-11T10:04:54.818Z,53.43
2017-07-11T10:07:22.300Z,54.00
2017-07-11T10:09:49.781Z,53.65
2017-07-11T10:12:17.410Z,51.33
2017-07-11T10:14:44.862Z,50.65
2017-07-11T10:17:12.318Z,51.64
2017-07-11T10:19:39.798Z,50.86
2017-07-11T10:22:07.269Z,50.58
2017-07-11T10:24:34.739Z,49.80
2017-07-11T10:27:02.195Z,49.68
2017-07-11T10:29:29.662Z,49.97
2017-07-11T10:31:57.144Z,50.38
2017-07-11T10:34:24.627Z,50.03
2017-07-11T10:36:52.127Z,50.44
2017-07-11T10:39:19.581Z,48.75
2017-07-11T10:41:47.039Z,49.41
2017-07-11T10:44:14.514Z,48.88
2017-07-11T10:46:42.011Z,49.91
2017-07-11T10:49:09.468Z,50.22
2017-07-11T10:51:36.965Z,49.42
2017-07-11T10:54:04.419Z,49.64
2017-07-11T10:56:31.873Z,47.63
2017-07-11T10:58:59.354Z,47.81
2017-07-11T11:01:26.818Z,45.45
2017-07-11T11:03:54.330Z,45.83
2017-07-11T11:06:21.791Z,45.27
2017-07-11T11:08:49.506Z,45.43
2017-07-11T11:11:16.971Z,45.29
2017-07-11T11:13:44.429Z,46.12
2017-07-11T11:16:11.908Z,48.02
2017-07-11T11:18:39.358Z,46.24
2017-07-11T11:21:06.850Z,45.46
2017-07-11T11:23:34.314Z,44.94
2017-07-11T11:26:01.774Z,44.22
2017-07-11T11:28:29.248Z,42.80
2017-07-11T11:30:56.702Z,42.94
2017-07-11T11:33:24.179Z,45.41
2017-07-11T11:35:51.628Z,42.60
2017-07-11T11:38:19.111Z,43.04
2017-07-11T11:40:46.599Z,44.28
2017-07-11T11:43:14.060Z,41.61
2017-07-11T11:45:41.545Z,40.32
2017-07-11T11:48:09.026Z,42.68
2017-07-11T11:50:36.492Z,42.51
2017-07-11T11:53:04.098Z,38.56
2017-07-11T11:55:31.551Z,39.63
2017-07-11T11:57:59.005Z,38.50
2017-07-11T12:00:26.503Z,39.71
2017-07-11T12:02:53.962Z,41.91
2017-07-11T12:05:21.437Z,42.26
2017-07-11T12:07:48.923Z,42.25
2017-07-11T12:10:16.409Z,38.90
2017-07-11T12:12:43.858Z,37.70
2017-07-11T12:15:11.338Z,37.07
2017-07-11T12:17:38.821Z,36.17
2017-07-11T12:20:06.280Z,34.99
2017-07-11T12:22:33.762Z,35.25
2017-07-11T12:25:01.230Z,34.83
2017-07-11T12:27:28.706Z,35.24
2017-07-11T12:29:56.172Z,34.59
2017-07-11T12:32:23.655Z,35.34
2017-07-11T12:34:51.109Z,34.07
2017-07-11T12:37:18.568Z,34.68
2017-07-11T12:39:46.451Z,32.89
2017-07-11T12:42:13.918Z,32.67
2017-07-11T12:44:41.370Z,32.59
2017-07-11T12:47:08.849Z,32.54
2017-07-11T12:49:36.335Z,33.13
2017-07-11T12:52:03.798Z,35.57
2017-07-11T12:54:31.512Z,30.97
2017-07-11T12:56:58.966Z,32.66
2017-07-11T12:59:26.411Z,33.23
2017-07-11T13:01:53.905Z,32.79
2017-07-11T13:04:21.362Z,32.46
2017-07-11T13:06:48.858Z,34.58
2017-07-11T13:09:16.321Z,34.48
2017-07-11T13:11:43.789Z,35.44
2017-07-11T13:14:11.270Z,33.62
2017-07-11T13:16:38.723Z,31.91
2017-07-11T13:19:06.425Z,33.66
2017-07-11T13:21:33.888Z,31.71
2017-07-11T13:24:01.341Z,33.83
2017-07-11T13:26:28.819Z,33.49
2017-07-11T13:28:56.271Z,35.16
2017-07-11T13:31:23.779Z,31.56
2017-07-11T13:33:51.237Z,29.20
2017-07-11T13:36:18.753Z,31.70
2017-07-11T13:38:46.193Z,30.91
2017-07-11T13:41:13.646Z,30.53
2017-07-11T13:43:41.104Z,32.73
2017-07-11T13:46:08.588Z,32.20
2017-07-11T13:48:36.070Z,31.27
2017-07-11T13:51:03.554Z,30.92
2017-07-11T13:53:31.009Z,33.88
2017-07-11T13:55:58.490Z,33.07
2017-07-11T13:58:26.421Z,33.91
2017-07-11T14:00:53.875Z,34.43
2017-07-11T14:03:21.326Z,34.05
2017-07-11T14:05:48.801Z,33.94
2017-07-11T14:08:16.261Z,32.98
2017-07-11T14:10:43.740Z,34.80
2017-07-11T14:13:11.243Z,34.05
2017-07-11T14:15:38.691Z,32.66
2017-07-11T14:18:06.165Z,33.60
2017-07-11T14:20:33.616Z,31.87
2017-07-11T14:23:01.100Z,31.86
2017-07-11T14:25:28.583Z,32.24
2017-07-11T14:27:56.042Z,28.69
2017-07-11T14:30:23.530Z,34.82
2017-07-11T14:32:51.151Z,32.83
2017-07-11T14:35:18.607Z,32.16
2017-07-11T14:37:46.065Z,31.01
2017-07-11T14:40:13.712Z,31.03
2017-07-11T14:42:41.169Z,33.55
2017-07-11T14:45:08.617Z,34.73
2017-07-11T14:47:36.089Z,31.60
2017-07-11T14:50:03.537Z,31.42
2017-07-11T14:52:31.020Z,31.71
2017-07-11T14:54:58.473Z,32.55
2017-07-11T14:57:25.926Z,30.24
2017-07-11T14:59:53.411Z,29.22
2017-07-11T15:02:20.871Z,28.08
2017-07-11T15:04:48.374Z,27.68
2017-07-11T15:07:15.833Z,31.45
2017-07-11T15:09:43.290Z,29.25
2017-07-11T15:12:10.767Z,29.26
2017-07-11T15:14:38.223Z,29.89
2017-07-11T15:17:05.724Z,29.34
2017-07-11T15:19:33.187Z,29.06
2017-07-11T15:22:00.652Z,32.02
2017-07-11T15:24:28.148Z,29.25
2017-07-11T15:26:55.602Z,32.30
2017-07-11T15:29:23.123Z,31.35
2017-07-11T15:31:50.571Z,29.90
2017-07-11T15:34:18.058Z,28.31
2017-07-11T15:36:45.523Z,28.03
2017-07-11T15:39:12.973Z,27.47
2017-07-11T15:41:40.449Z,28.06
2017-07-11T15:44:07.947Z,31.88
2017-07-11T15:46:35.411Z,28.79
2017-07-11T15:49:02.884Z,28.12
2017-07-11T15:51:30.353Z,30.24
2017-07-11T15:53:57.811Z,29.31
2017-07-11T15:56:25.293Z,29.17
2017-07-11T15:58:52.747Z,29.93
2017-07-11T16:01:20.212Z,30.83
2017-07-11T16:03:47.697Z,31.75
2017-07-11T16:06:15.189Z,30.04
2017-07-11T16:08:42.675Z,29.16
2017-07-11T16:11:10.179Z,27.76
2017-07-11T16:13:37.658Z,30.64
2017-07-11T16:16:05.113Z,28.46
2017-07-11T16:18:32.589Z,27.34
2017-07-11T16:21:00.088Z,27.99
2017-07-11T16:23:27.543Z,28.55
2017-07-11T16:25:55.001Z,28.37
2017-07-11T16:28:22.474Z,29.89
2017-07-11T16:30:49.947Z,27.94
2017-07-11T16:33:17.442Z,28.90
2017-07-11T16:35:44.902Z,30.18
2017-07-11T16:38:12.351Z,27.35
2017-07-11T16:40:39.983Z,28.28
2017-07-11T16:43:07.474Z,27.83
2017-07-11T16:45:34.950Z,28.50
2017-07-11T16:48:02.426Z,30.65
2017-07-11T16:50:29.897Z,32.20
2017-07-11T16:52:57.421Z,34.81
2017-07-11T16:55:24.886Z,33.54
2017-07-11T16:57:52.346Z,34.74
2017-07-11T17:00:19.816Z,35.39
2017-07-11T17:02:47.279Z,34.40
2017-07-11T17:05:14.762Z,34.92
2017-07-11T17:07:42.215Z,38.50
2017-07-11T17:10:09.701Z,36.90
2017-07-11T17:12:37.166Z,37.04
2017-07-11T17:15:04.667Z,36.90
2017-07-11T17:17:32.133Z,36.52
2017-07-11T17:19:59.600Z,36.64
2017-07-11T17:22:27.090Z,37.09
2017-07-11T17:24:54.611Z,37.16
2017-07-11T17:27:22.075Z,36.04
2017-07-11T17:29:49.578Z,33.53
2017-07-11T17:32:17.099Z,30.85
2017-07-11T17:34:44.574Z,32.50
2017-07-11T17:37:12.032Z,32.86
2017-07-11T17:39:39.508Z,31.43
2017-07-11T17:42:06.974Z,30.01
2017-07-11T17:44:34.464Z,30.62
2017-07-11T17:47:01.953Z,30.99
2017-07-11T17:49:29.774Z,33.35
2017-07-11T17:51:57.258Z,34.37
2017-07-11T17:54:24.771Z,33.68
2017-07-11T17:56:52.270Z,33.63
2017-07-11T17:59:19.900Z,33.51
2017-07-11T18:01:47.437Z,35.73
2017-07-11T18:04:14.923Z,37.08
2017-07-11T18:06:42.383Z,35.47
2017-07-11T18:09:09.875Z,35.64
2017-07-11T18:11:37.383Z,36.55
2017-07-11T18:14:04.850Z,34.95
2017-07-11T18:16:32.307Z,37.36
2017-07-11T18:18:59.814Z,37.88
2017-07-11T18:21:27.277Z,38.49
2017-07-11T18:23:54.730Z,39.12
2017-07-11T18:26:22.369Z,38.88
2017-07-11T18:28:49.861Z,40.23
2017-07-11T18:31:17.377Z,40.53
2017-07-11T18:33:45.025Z,41.39
2017-07-11T18:36:12.583Z,40.83
2017-07-11T18:38:40.081Z,39.58
2017-07-11T18:41:07.539Z,40.41
2017-07-11T18:43:34.995Z,40.82
2017-07-11T18:46:02.492Z,41.27
2017-07-11T18:48:29.972Z,41.96
2017-07-11T18:50:57.828Z,41.15
2017-07-11T18:53:25.298Z,42.47
2017-07-11T18:55:52.802Z,42.92
2017-07-11T18:58:20.292Z,43.47
2017-07-11T19:00:47.787Z,43.27
2017-07-11T19:03:15.263Z,43.50
2017-07-11T19:05:42.754Z,43.75
2017-07-11T19:08:10.240Z,44.67
2017-07-11T19:10:37.731Z,44.72
2017-07-11T19:13:05.234Z,45.43
2017-07-11T19:15:32.682Z,44.83
2017-07-11T19:18:00.138Z,45.04
2017-07-11T19:20:27.658Z,45.49
2017-07-11T19:22:55.118Z,46.04
2017-07-11T19:25:24.407Z,46.45
2017-07-11T19:27:52.026Z,46.64
2017-07-11T19:30:19.507Z,46.25
2017-07-11T19:32:47.016Z,46.76
2017-07-11T19:35:14.620Z,47.76
2017-07-11T19:37:42.177Z,48.44
2017-07-11T19:40:09.668Z,48.94
2017-07-11T19:42:37.145Z,49.06
2017-07-11T19:45:04.661Z,48.92
2017-07-11T19:47:32.697Z,49.42
2017-07-11T19:50:00.247Z,49.53
2017-07-11T19:52:27.827Z,49.96
2017-07-11T19:54:57.064Z,50.48
2017-07-11T19:57:24.650Z,50.89
2017-07-11T19:59:52.155Z,51.66
2017-07-11T20:02:19.615Z,51.69
2017-07-11T20:04:47.187Z,52.87
2017-07-11T20:07:14.659Z,52.35
2017-07-11T20:09:42.115Z,52.21
2017-07-11T20:12:09.619Z,53.03
2017-07-11T20:14:37.077Z,53.15
2017-07-11T20:17:04.551Z,53.39
2017-07-11T20:26:16.063Z,55.54
2017-07-11T20:28:43.530Z,55.68
2017-07-11T20:31:10.987Z,54.80
2017-07-11T20:33:38.647Z,55.04
2017-07-11T20:36:06.095Z,55.07
2017-07-11T20:38:33.550Z,56.16
2017-07-11T20:41:01.037Z,55.30
2017-07-11T20:43:28.501Z,56.00
2017-07-11T20:45:55.985Z,55.95
2017-07-11T20:48:23.450Z,56.54
2017-07-11T20:50:51.087Z,56.58
2017-07-11T20:53:18.631Z,56.16
2017-07-11T20:55:46.066Z,55.71
2017-07-11T20:58:13.523Z,54.88
2017-07-11T21:00:40.994Z,57.28
2017-07-11T21:03:08.451Z,57.61
2017-07-11T21:05:36.168Z,57.76
2017-07-11T21:08:03.638Z,59.40
2017-07-11T21:10:31.128Z,60.43
2017-07-11T21:12:58.611Z,60.78
2017-07-11T21:15:26.071Z,59.40
2017-07-11T21:17:53.555Z,59.28
2017-07-11T21:20:21.046Z,58.26
2017-07-11T21:22:48.533Z,58.24
2017-07-11T21:25:15.985Z,57.33
2017-07-11T21:27:43.467Z,57.37
2017-07-11T21:30:10.958Z,58.56
2017-07-11T21:32:38.582Z,59.44
2017-07-11T21:35:06.041Z,59.46
2017-07-11T21:37:33.497Z,59.74
2017-07-11T21:40:00.969Z,59.56
2017-07-11T21:42:28.420Z,59.25
2017-07-11T21:44:55.906Z,59.33
2017-07-11T21:47:23.405Z,59.31
2017-07-11T21:49:50.864Z,58.99
2017-07-11T21:52:18.362Z,59.41
2017-07-11T21:54:45.819Z,59.49
2017-07-11T21:57:13.282Z,60.43
2017-07-11T21:59:40.771Z,60.38
2017-07-11T22:02:08.225Z,61.07
2017-07-11T22:04:35.700Z,61.10
2017-07-11T22:07:03.196Z,61.16
2017-07-11T22:09:30.653Z,61.61
2017-07-11T22:11:58.119Z,61.87
2017-07-11T22:14:25.598Z,60.65
2017-07-11T22:16:53.423Z,61.59
2017-07-11T22:19:20.955Z,61.82
2017-07-11T22:21:48.415Z,62.12
2017-07-11T22:24:15.886Z,61.88
2017-07-11T22:26:43.350Z,62.03
2017-07-11T22:29:10.833Z,61.70
2017-07-11T22:31:38.297Z,62.82
2017-07-11T22:34:05.801Z,62.36
2017-07-11T22:36:33.270Z,62.46
2017-07-11T22:39:00.727Z,62.76
2017-07-11T22:41:28.207Z,62.97
2017-07-11T22:43:55.696Z,63.06
2017-07-11T22:46:23.195Z,63.25
2017-07-11T22:48:50.654Z,63.80
2017-07-11T22:51:18.148Z,62.92
2017-07-11T22:53:45.590Z,63.59
2017-07-11T22:56:13.068Z,63.35
2017-07-11T22:58:40.694Z,63.83
2017-07-11T23:01:08.158Z,63.53
2017-07-11T23:03:35.612Z,63.96
2017-07-11T23:06:03.081Z,63.72
2017-07-11T23:08:30.549Z,64.16
2017-07-11T23:10:58.019Z,63.69
2017-07-11T23:13:25.466Z,63.16
2017-07-11T23:15:53.031Z,63.21
2017-07-11T23:18:20.480Z,63.18
2017-07-11T23:20:48.263Z,63.66
2017-07-11T23:23:15.717Z,63.59
2017-07-11T23:25:43.173Z,64.49
2017-07-11T23:28:10.658Z,64.41
2017-07-11T23:30:38.119Z,65.48
2017-07-11T23:33:05.590Z,65.16
2017-07-11T23:35:33.065Z,65.20
2017-07-11T23:38:00.542Z,65.43
2017-07-11T23:40:28.023Z,65.78
2017-07-11T23:42:55.497Z,65.32
2017-07-11T23:45:22.990Z,66.20
2017-07-11T23:47:50.443Z,66.22
2017-07-11T23:50:17.894Z,66.61
2017-07-11T23:52:45.370Z,67.56
2017-07-11T23:55:12.828Z,66.91
2017-07-11T23:57:40.311Z,68.23
